Waterman, Pennsylvania
Current Conditions -  °F | °C
As of 8:35 AM on Friday 24 Oct 2014 (Local Time) from KIDI Reporting Station
Haze Haze  
Wind Chill: 41°   Ceiling: 900
Heat Index: 45°   Visibility: 5mi
Dew Point: 43°   Wind: 6mph
Humidity: 93%   Direction: 280°W
Pressure: 30.12"   Gusts: NA
Location:  40.5413°N, 79.1838°W
Report Text: KIDI 241235Z AUTO 28005KT 5SM BR BKN009 OVC012 07/06 A3012 RMK A01
Loading
Personal Weather Stations






























Interactive Weather Map New forecast layout! Learn more

10-Day Weather Forecast

Advertisements
Track Severe Weather on mobile